sensor_id;sensor_type;location;lat;lon;timestamp;P1;durP1;ratioP1;P2;durP2;ratioP2
38111;SDS011;64011;56.312;44.048;2022-12-11T00:01:16;19.80;;;7.80;;
38111;SDS011;64011;56.312;44.048;2022-12-11T00:03:19;19.15;;;7.10;;
38111;SDS011;64011;56.312;44.048;2022-12-11T00:05:20;24.42;;;9.68;;
38111;SDS011;64011;56.312;44.048;2022-12-11T00:07:21;20.02;;;7.82;;
38111;SDS011;64011;56.312;44.048;2022-12-11T00:09:21;21.95;;;8.18;;
38111;SDS011;64011;56.312;44.048;2022-12-11T00:11:22;22.30;;;8.43;;
38111;SDS011;64011;56.312;44.048;2022-12-11T00:13:23;19.70;;;7.18;;
38111;SDS011;64011;56.312;44.048;2022-12-11T00:15:24;19.73;;;7.05;;
38111;SDS011;64011;56.312;44.048;2022-12-11T00:17:24;20.70;;;8.18;;
38111;SDS011;64011;56.312;44.048;2022-12-11T00:19:26;17.63;;;6.15;;
38111;SDS011;64011;56.312;44.048;2022-12-11T00:21:27;27.05;;;8.50;;
38111;SDS011;64011;56.312;44.048;2022-12-11T00:23:28;19.35;;;7.32;;
38111;SDS011;64011;56.312;44.048;2022-12-11T00:25:29;18.40;;;5.97;;
38111;SDS011;64011;56.312;44.048;2022-12-11T00:27:29;19.85;;;7.15;;
38111;SDS011;64011;56.312;44.048;2022-12-11T00:29:30;14.88;;;5.07;;
38111;SDS011;64011;56.312;44.048;2022-12-11T00:31:31;18.50;;;6.57;;
38111;SDS011;64011;56.312;44.048;2022-12-11T00:33:31;22.45;;;7.90;;
38111;SDS011;64011;56.312;44.048;2022-12-11T00:35:36;18.55;;;6.15;;
38111;SDS011;64011;56.312;44.048;2022-12-11T00:37:37;19.00;;;6.68;;
38111;SDS011;64011;56.312;44.048;2022-12-11T00:39:38;17.88;;;6.10;;
38111;SDS011;64011;56.312;44.048;2022-12-11T00:41:38;19.50;;;6.63;;
38111;SDS011;64011;56.312;44.048;2022-12-11T00:43:39;18.65;;;6.68;;
38111;SDS011;64011;56.312;44.048;2022-12-11T00:45:40;20.02;;;6.82;;
38111;SDS011;64011;56.312;44.048;2022-12-11T00:47:42;19.00;;;7.47;;
38111;SDS011;64011;56.312;44.048;2022-12-11T00:49:42;18.42;;;6.80;;
38111;SDS011;64011;56.312;44.048;2022-12-11T00:51:44;16.17;;;5.45;;
38111;SDS011;64011;56.312;44.048;2022-12-11T00:53:45;17.88;;;5.93;;
38111;SDS011;64011;56.312;44.048;2022-12-11T00:55:46;13.93;;;4.40;;
38111;SDS011;64011;56.312;44.048;2022-12-11T00:57:47;11.20;;;3.60;;
38111;SDS011;64011;56.312;44.048;2022-12-11T00:59:50;14.98;;;4.85;;
38111;SDS011;64011;56.312;44.048;2022-12-11T01:01:51;15.35;;;5.35;;
38111;SDS011;64011;56.312;44.048;2022-12-11T01:03:51;15.85;;;5.47;;
38111;SDS011;64011;56.312;44.048;2022-12-11T01:05:52;15.65;;;5.55;;
38111;SDS011;64011;56.312;44.048;2022-12-11T01:07:55;15.30;;;5.45;;
38111;SDS011;64011;56.312;44.048;2022-12-11T01:09:56;17.42;;;5.53;;
38111;SDS011;64011;56.312;44.048;2022-12-11T01:11:57;15.48;;;5.60;;
38111;SDS011;64011;56.312;44.048;2022-12-11T01:13:57;16.73;;;6.00;;
38111;SDS011;64011;56.312;44.048;2022-12-11T01:15:58;15.00;;;5.07;;
38111;SDS011;64011;56.312;44.048;2022-12-11T01:17:59;15.48;;;4.88;;
38111;SDS011;64011;56.312;44.048;2022-12-11T01:19:59;17.35;;;6.47;;
38111;SDS011;64011;56.312;44.048;2022-12-11T01:22:00;17.88;;;6.50;;
38111;SDS011;64011;56.312;44.048;2022-12-11T01:24:02;16.83;;;6.47;;
38111;SDS011;64011;56.312;44.048;2022-12-11T01:26:04;18.05;;;6.82;;
38111;SDS011;64011;56.312;44.048;2022-12-11T01:28:06;17.17;;;6.68;;
38111;SDS011;64011;56.312;44.048;2022-12-11T01:30:08;18.73;;;7.30;;
38111;SDS011;64011;56.312;44.048;2022-12-11T01:32:09;18.20;;;6.28;;
38111;SDS011;64011;56.312;44.048;2022-12-11T01:34:10;17.13;;;6.32;;
38111;SDS011;64011;56.312;44.048;2022-12-11T01:36:12;16.65;;;6.10;;
38111;SDS011;64011;56.312;44.048;2022-12-11T01:38:14;16.20;;;5.30;;
38111;SDS011;64011;56.312;44.048;2022-12-11T01:40:17;18.73;;;7.07;;
38111;SDS011;64011;56.312;44.048;2022-12-11T01:42:19;17.83;;;6.50;;
38111;SDS011;64011;56.312;44.048;2022-12-11T01:46:57;16.73;;;5.97;;
38111;SDS011;64011;56.312;44.048;2022-12-11T01:48:58;17.95;;;5.78;;
38111;SDS011;64011;56.312;44.048;2022-12-11T01:51:00;19.38;;;6.63;;
38111;SDS011;64011;56.312;44.048;2022-12-11T01:53:03;19.05;;;7.22;;
38111;SDS011;64011;56.312;44.048;2022-12-11T01:55:06;17.92;;;6.32;;
38111;SDS011;64011;56.312;44.048;2022-12-11T01:57:09;18.85;;;7.05;;
38111;SDS011;64011;56.312;44.048;2022-12-11T01:59:10;19.13;;;6.85;;
38111;SDS011;64011;56.312;44.048;2022-12-11T02:01:14;18.80;;;6.25;;
38111;SDS011;64011;56.312;44.048;2022-12-11T02:03:19;19.67;;;6.57;;
38111;SDS011;64011;56.312;44.048;2022-12-11T02:05:20;18.50;;;6.53;;
38111;SDS011;64011;56.312;44.048;2022-12-11T02:07:21;17.73;;;6.07;;
38111;SDS011;64011;56.312;44.048;2022-12-11T02:09:22;19.67;;;6.63;;
38111;SDS011;64011;56.312;44.048;2022-12-11T02:11:25;18.35;;;6.80;;
38111;SDS011;64011;56.312;44.048;2022-12-11T02:13:36;17.52;;;6.03;;
38111;SDS011;64011;56.312;44.048;2022-12-11T02:15:40;17.23;;;5.90;;
38111;SDS011;64011;56.312;44.048;2022-12-11T02:17:45;16.67;;;6.00;;
38111;SDS011;64011;56.312;44.048;2022-12-11T02:19:51;19.33;;;6.65;;
38111;SDS011;64011;56.312;44.048;2022-12-11T02:21:57;20.60;;;6.95;;
38111;SDS011;64011;56.312;44.048;2022-12-11T02:26:46;16.30;;;5.88;;
38111;SDS011;64011;56.312;44.048;2022-12-11T02:28:56;21.08;;;6.72;;
38111;SDS011;64011;56.312;44.048;2022-12-11T02:30:59;19.48;;;6.88;;
38111;SDS011;64011;56.312;44.048;2022-12-11T02:33:01;18.67;;;6.75;;
38111;SDS011;64011;56.312;44.048;2022-12-11T02:35:04;15.80;;;4.75;;
38111;SDS011;64011;56.312;44.048;2022-12-11T02:37:08;16.35;;;5.30;;
38111;SDS011;64011;56.312;44.048;2022-12-11T02:39:12;16.60;;;5.38;;
38111;SDS011;64011;56.312;44.048;2022-12-11T02:41:14;16.40;;;5.75;;
38111;SDS011;64011;56.312;44.048;2022-12-11T02:43:15;16.38;;;5.20;;
38111;SDS011;64011;56.312;44.048;2022-12-11T02:45:18;14.73;;;4.85;;
38111;SDS011;64011;56.312;44.048;2022-12-11T02:47:19;16.65;;;5.60;;
38111;SDS011;64011;56.312;44.048;2022-12-11T02:49:20;16.00;;;5.28;;
38111;SDS011;64011;56.312;44.048;2022-12-11T02:51:24;14.80;;;5.03;;
38111;SDS011;64011;56.312;44.048;2022-12-11T02:53:27;14.68;;;4.80;;
38111;SDS011;64011;56.312;44.048;2022-12-11T02:55:29;13.43;;;4.68;;
38111;SDS011;64011;56.312;44.048;2022-12-11T02:57:32;14.40;;;4.25;;
38111;SDS011;64011;56.312;44.048;2022-12-11T02:59:38;14.70;;;4.97;;
38111;SDS011;64011;56.312;44.048;2022-12-11T03:01:42;15.45;;;5.00;;
38111;SDS011;64011;56.312;44.048;2022-12-11T03:03:42;15.68;;;4.70;;
38111;SDS011;64011;56.312;44.048;2022-12-11T03:05:43;13.07;;;4.20;;
38111;SDS011;64011;56.312;44.048;2022-12-11T03:07:44;17.55;;;5.05;;
38111;SDS011;64011;56.312;44.048;2022-12-11T03:09:45;16.23;;;4.60;;
38111;SDS011;64011;56.312;44.048;2022-12-11T03:11:46;15.85;;;5.10;;
38111;SDS011;64011;56.312;44.048;2022-12-11T03:13:47;14.98;;;4.97;;
38111;SDS011;64011;56.312;44.048;2022-12-11T03:15:50;16.58;;;4.60;;
38111;SDS011;64011;56.312;44.048;2022-12-11T03:18:02;14.77;;;4.28;;
38111;SDS011;64011;56.312;44.048;2022-12-11T03:20:06;14.05;;;4.28;;
38111;SDS011;64011;56.312;44.048;2022-12-11T03:22:11;13.90;;;4.03;;
38111;SDS011;64011;56.312;44.048;2022-12-11T03:24:17;15.68;;;4.93;;
38111;SDS011;64011;56.312;44.048;2022-12-11T03:26:20;15.77;;;4.75;;
38111;SDS011;64011;56.312;44.048;2022-12-11T03:28:23;15.45;;;4.93;;
38111;SDS011;64011;56.312;44.048;2022-12-11T03:30:27;13.30;;;3.97;;
38111;SDS011;64011;56.312;44.048;2022-12-11T03:32:28;12.88;;;3.72;;
38111;SDS011;64011;56.312;44.048;2022-12-11T03:34:33;12.35;;;3.92;;
38111;SDS011;64011;56.312;44.048;2022-12-11T03:36:38;14.05;;;3.92;;
38111;SDS011;64011;56.312;44.048;2022-12-11T03:38:40;12.95;;;4.15;;
38111;SDS011;64011;56.312;44.048;2022-12-11T03:40:45;12.32;;;3.70;;
38111;SDS011;64011;56.312;44.048;2022-12-11T03:42:49;12.65;;;3.90;;
38111;SDS011;64011;56.312;44.048;2022-12-11T03:44:51;14.00;;;4.28;;
38111;SDS011;64011;56.312;44.048;2022-12-11T03:46:53;13.32;;;4.10;;
38111;SDS011;64011;56.312;44.048;2022-12-11T03:48:58;12.25;;;3.80;;
38111;SDS011;64011;56.312;44.048;2022-12-11T03:51:02;11.13;;;3.50;;
38111;SDS011;64011;56.312;44.048;2022-12-11T03:53:06;12.43;;;3.55;;
38111;SDS011;64011;56.312;44.048;2022-12-11T03:55:07;12.02;;;3.63;;
38111;SDS011;64011;56.312;44.048;2022-12-11T03:57:09;14.15;;;4.03;;
38111;SDS011;64011;56.312;44.048;2022-12-11T03:59:11;9.68;;;3.03;;
38111;SDS011;64011;56.312;44.048;2022-12-11T04:01:12;12.50;;;3.70;;
38111;SDS011;64011;56.312;44.048;2022-12-11T04:03:12;13.32;;;4.10;;
38111;SDS011;64011;56.312;44.048;2022-12-11T04:05:13;10.20;;;2.72;;
38111;SDS011;64011;56.312;44.048;2022-12-11T04:07:15;12.63;;;4.00;;
38111;SDS011;64011;56.312;44.048;2022-12-11T04:09:16;12.02;;;3.80;;
38111;SDS011;64011;56.312;44.048;2022-12-11T04:11:17;10.77;;;3.75;;
38111;SDS011;64011;56.312;44.048;2022-12-11T04:13:17;11.90;;;3.95;;
38111;SDS011;64011;56.312;44.048;2022-12-11T04:15:18;12.98;;;3.95;;
38111;SDS011;64011;56.312;44.048;2022-12-11T04:17:19;11.77;;;3.70;;
38111;SDS011;64011;56.312;44.048;2022-12-11T04:19:19;11.77;;;3.70;;
38111;SDS011;64011;56.312;44.048;2022-12-11T04:21:21;12.00;;;3.20;;
38111;SDS011;64011;56.312;44.048;2022-12-11T04:23:23;12.30;;;4.47;;
38111;SDS011;64011;56.312;44.048;2022-12-11T04:25:24;11.20;;;3.35;;
38111;SDS011;64011;56.312;44.048;2022-12-11T04:27:24;12.07;;;3.88;;
38111;SDS011;64011;56.312;44.048;2022-12-11T04:29:25;11.82;;;3.40;;
38111;SDS011;64011;56.312;44.048;2022-12-11T04:31:26;11.50;;;2.75;;
38111;SDS011;64011;56.312;44.048;2022-12-11T04:33:27;6.97;;;2.13;;
38111;SDS011;64011;56.312;44.048;2022-12-11T04:35:28;10.30;;;2.85;;
38111;SDS011;64011;56.312;44.048;2022-12-11T04:37:28;12.77;;;3.42;;
38111;SDS011;64011;56.312;44.048;2022-12-11T04:39:30;10.07;;;3.22;;
38111;SDS011;64011;56.312;44.048;2022-12-11T04:41:32;9.63;;;2.88;;
38111;SDS011;64011;56.312;44.048;2022-12-11T04:43:33;8.05;;;2.58;;
38111;SDS011;64011;56.312;44.048;2022-12-11T04:45:34;9.40;;;2.60;;
38111;SDS011;64011;56.312;44.048;2022-12-11T04:47:35;8.98;;;3.05;;
38111;SDS011;64011;56.312;44.048;2022-12-11T04:49:36;8.48;;;2.60;;
38111;SDS011;64011;56.312;44.048;2022-12-11T04:51:36;10.77;;;2.50;;
38111;SDS011;64011;56.312;44.048;2022-12-11T04:53:37;8.55;;;2.42;;
38111;SDS011;64011;56.312;44.048;2022-12-11T04:55:39;10.93;;;3.20;;
38111;SDS011;64011;56.312;44.048;2022-12-11T04:57:40;3.83;;;1.38;;
38111;SDS011;64011;56.312;44.048;2022-12-11T04:59:41;8.82;;;2.40;;
38111;SDS011;64011;56.312;44.048;2022-12-11T05:01:41;7.90;;;2.33;;
38111;SDS011;64011;56.312;44.048;2022-12-11T05:03:42;9.77;;;2.60;;
38111;SDS011;64011;56.312;44.048;2022-12-11T05:05:46;4.00;;;1.23;;
38111;SDS011;64011;56.312;44.048;2022-12-11T05:07:47;9.88;;;3.47;;
38111;SDS011;64011;56.312;44.048;2022-12-11T05:09:47;8.50;;;2.58;;
38111;SDS011;64011;56.312;44.048;2022-12-11T05:11:50;9.88;;;2.72;;
38111;SDS011;64011;56.312;44.048;2022-12-11T05:13:50;5.78;;;1.98;;
38111;SDS011;64011;56.312;44.048;2022-12-11T05:15:51;9.20;;;2.90;;
38111;SDS011;64011;56.312;44.048;2022-12-11T05:17:52;10.52;;;3.17;;
38111;SDS011;64011;56.312;44.048;2022-12-11T05:19:52;11.13;;;3.25;;
38111;SDS011;64011;56.312;44.048;2022-12-11T05:21:53;12.52;;;3.80;;
38111;SDS011;64011;56.312;44.048;2022-12-11T05:23:54;9.00;;;2.50;;
38111;SDS011;64011;56.312;44.048;2022-12-11T05:25:55;9.50;;;3.10;;
38111;SDS011;64011;56.312;44.048;2022-12-11T05:27:58;8.52;;;2.90;;
38111;SDS011;64011;56.312;44.048;2022-12-11T05:29:59;11.45;;;2.88;;
38111;SDS011;64011;56.312;44.048;2022-12-11T05:31:59;11.40;;;2.97;;
38111;SDS011;64011;56.312;44.048;2022-12-11T05:34:00;5.05;;;1.70;;
38111;SDS011;64011;56.312;44.048;2022-12-11T05:36:01;7.18;;;2.30;;
38111;SDS011;64011;56.312;44.048;2022-12-11T05:38:02;7.55;;;2.47;;
38111;SDS011;64011;56.312;44.048;2022-12-11T05:40:03;8.40;;;2.60;;
38111;SDS011;64011;56.312;44.048;2022-12-11T05:42:04;8.85;;;2.53;;
38111;SDS011;64011;56.312;44.048;2022-12-11T05:44:06;8.85;;;2.90;;
38111;SDS011;64011;56.312;44.048;2022-12-11T05:46:09;8.50;;;2.60;;
38111;SDS011;64011;56.312;44.048;2022-12-11T05:48:11;12.55;;;3.20;;
38111;SDS011;64011;56.312;44.048;2022-12-11T05:50:11;9.80;;;2.60;;
38111;SDS011;64011;56.312;44.048;2022-12-11T05:52:12;9.93;;;2.67;;
38111;SDS011;64011;56.312;44.048;2022-12-11T05:54:13;12.38;;;3.10;;
38111;SDS011;64011;56.312;44.048;2022-12-11T05:56:14;7.40;;;2.50;;
38111;SDS011;64011;56.312;44.048;2022-12-11T05:58:16;7.88;;;2.28;;
38111;SDS011;64011;56.312;44.048;2022-12-11T06:00:18;7.05;;;2.22;;
38111;SDS011;64011;56.312;44.048;2022-12-11T06:02:19;8.57;;;2.75;;
38111;SDS011;64011;56.312;44.048;2022-12-11T06:04:19;5.72;;;1.58;;
38111;SDS011;64011;56.312;44.048;2022-12-11T06:06:20;6.35;;;2.30;;
38111;SDS011;64011;56.312;44.048;2022-12-11T06:08:21;8.80;;;2.33;;
38111;SDS011;64011;56.312;44.048;2022-12-11T06:10:22;8.63;;;2.47;;
38111;SDS011;64011;56.312;44.048;2022-12-11T06:12:22;6.30;;;2.03;;
38111;SDS011;64011;56.312;44.048;2022-12-11T06:14:23;9.68;;;2.90;;
38111;SDS011;64011;56.312;44.048;2022-12-11T06:16:25;6.78;;;2.22;;
38111;SDS011;64011;56.312;44.048;2022-12-11T06:18:26;6.10;;;2.08;;
38111;SDS011;64011;56.312;44.048;2022-12-11T06:20:29;9.05;;;2.65;;
38111;SDS011;64011;56.312;44.048;2022-12-11T06:22:30;9.13;;;2.40;;
38111;SDS011;64011;56.312;44.048;2022-12-11T06:24:30;10.77;;;3.17;;
38111;SDS011;64011;56.312;44.048;2022-12-11T06:26:31;9.02;;;2.90;;
38111;SDS011;64011;56.312;44.048;2022-12-11T06:28:32;9.35;;;2.60;;
38111;SDS011;64011;56.312;44.048;2022-12-11T06:30:33;5.97;;;2.10;;
38111;SDS011;64011;56.312;44.048;2022-12-11T06:32:35;8.07;;;2.40;;
38111;SDS011;64011;56.312;44.048;2022-12-11T06:34:35;7.38;;;2.60;;
38111;SDS011;64011;56.312;44.048;2022-12-11T06:36:36;4.53;;;1.92;;
38111;SDS011;64011;56.312;44.048;2022-12-11T06:38:37;8.95;;;2.45;;
38111;SDS011;64011;56.312;44.048;2022-12-11T06:40:37;10.27;;;3.10;;
38111;SDS011;64011;56.312;44.048;2022-12-11T06:42:38;8.32;;;2.65;;
38111;SDS011;64011;56.312;44.048;2022-12-11T06:44:39;7.88;;;2.47;;
38111;SDS011;64011;56.312;44.048;2022-12-11T06:46:39;6.90;;;2.42;;
38111;SDS011;64011;56.312;44.048;2022-12-11T06:48:42;10.57;;;3.17;;
38111;SDS011;64011;56.312;44.048;2022-12-11T06:50:43;10.27;;;2.90;;
38111;SDS011;64011;56.312;44.048;2022-12-11T06:52:43;7.13;;;2.28;;
38111;SDS011;64011;56.312;44.048;2022-12-11T06:54:44;8.73;;;2.72;;
38111;SDS011;64011;56.312;44.048;2022-12-11T06:56:45;9.45;;;2.83;;
38111;SDS011;64011;56.312;44.048;2022-12-11T06:58:45;8.77;;;2.50;;
38111;SDS011;64011;56.312;44.048;2022-12-11T07:00:46;10.82;;;3.03;;
38111;SDS011;64011;56.312;44.048;2022-12-11T07:02:47;10.77;;;3.00;;
38111;SDS011;64011;56.312;44.048;2022-12-11T07:04:51;9.32;;;3.13;;
38111;SDS011;64011;56.312;44.048;2022-12-11T07:06:51;8.32;;;2.53;;
38111;SDS011;64011;56.312;44.048;2022-12-11T07:08:52;9.13;;;3.60;;
38111;SDS011;64011;56.312;44.048;2022-12-11T07:10:53;9.75;;;2.53;;
38111;SDS011;64011;56.312;44.048;2022-12-11T07:12:54;9.32;;;2.78;;
38111;SDS011;64011;56.312;44.048;2022-12-11T07:14:55;11.75;;;3.17;;
38111;SDS011;64011;56.312;44.048;2022-12-11T07:16:55;10.15;;;2.85;;
38111;SDS011;64011;56.312;44.048;2022-12-11T07:18:56;9.25;;;2.58;;
38111;SDS011;64011;56.312;44.048;2022-12-11T07:20:58;8.57;;;2.35;;
38111;SDS011;64011;56.312;44.048;2022-12-11T07:22:59;8.90;;;2.55;;
38111;SDS011;64011;56.312;44.048;2022-12-11T07:24:59;8.45;;;2.38;;
38111;SDS011;64011;56.312;44.048;2022-12-11T07:27:00;9.30;;;2.63;;
38111;SDS011;64011;56.312;44.048;2022-12-11T07:29:01;10.13;;;2.92;;
38111;SDS011;64011;56.312;44.048;2022-12-11T07:31:03;9.65;;;3.25;;
38111;SDS011;64011;56.312;44.048;2022-12-11T07:33:04;9.70;;;2.72;;
38111;SDS011;64011;56.312;44.048;2022-12-11T07:35:05;10.77;;;3.13;;
38111;SDS011;64011;56.312;44.048;2022-12-11T07:37:08;8.88;;;2.83;;
38111;SDS011;64011;56.312;44.048;2022-12-11T07:39:09;8.18;;;2.90;;
38111;SDS011;64011;56.312;44.048;2022-12-11T07:41:11;10.00;;;2.90;;
38111;SDS011;64011;56.312;44.048;2022-12-11T07:43:13;12.00;;;3.20;;
38111;SDS011;64011;56.312;44.048;2022-12-11T07:45:13;8.68;;;2.20;;
38111;SDS011;64011;56.312;44.048;2022-12-11T07:47:14;9.18;;;2.70;;
38111;SDS011;64011;56.312;44.048;2022-12-11T07:49:15;7.75;;;2.17;;
38111;SDS011;64011;56.312;44.048;2022-12-11T07:51:16;11.30;;;3.70;;
38111;SDS011;64011;56.312;44.048;2022-12-11T07:53:19;15.98;;;6.38;;
38111;SDS011;64011;56.312;44.048;2022-12-11T07:55:20;11.25;;;3.17;;
38111;SDS011;64011;56.312;44.048;2022-12-11T07:57:21;14.30;;;5.55;;
38111;SDS011;64011;56.312;44.048;2022-12-11T07:59:21;8.35;;;2.97;;
38111;SDS011;64011;56.312;44.048;2022-12-11T08:01:23;8.30;;;2.72;;
38111;SDS011;64011;56.312;44.048;2022-12-11T08:03:25;17.25;;;5.50;;
38111;SDS011;64011;56.312;44.048;2022-12-11T08:05:26;14.05;;;4.28;;
38111;SDS011;64011;56.312;44.048;2022-12-11T08:07:26;13.77;;;4.85;;
38111;SDS011;64011;56.312;44.048;2022-12-11T08:09:28;12.02;;;3.65;;
38111;SDS011;64011;56.312;44.048;2022-12-11T08:11:29;11.75;;;3.95;;
38111;SDS011;64011;56.312;44.048;2022-12-11T08:13:30;10.70;;;2.97;;
38111;SDS011;64011;56.312;44.048;2022-12-11T08:15:31;9.02;;;3.08;;
38111;SDS011;64011;56.312;44.048;2022-12-11T08:17:31;10.68;;;2.92;;
38111;SDS011;64011;56.312;44.048;2022-12-11T08:19:32;8.45;;;2.53;;
38111;SDS011;64011;56.312;44.048;2022-12-11T08:21:33;9.38;;;2.65;;
38111;SDS011;64011;56.312;44.048;2022-12-11T08:23:33;10.18;;;3.25;;
38111;SDS011;64011;56.312;44.048;2022-12-11T08:25:35;10.35;;;3.22;;
38111;SDS011;64011;56.312;44.048;2022-12-11T08:27:36;10.43;;;3.35;;
38111;SDS011;64011;56.312;44.048;2022-12-11T08:29:37;6.35;;;2.22;;
38111;SDS011;64011;56.312;44.048;2022-12-11T08:31:38;9.13;;;2.85;;
38111;SDS011;64011;56.312;44.048;2022-12-11T08:33:39;12.10;;;3.58;;
38111;SDS011;64011;56.312;44.048;2022-12-11T08:35:41;10.63;;;3.33;;
38111;SDS011;64011;56.312;44.048;2022-12-11T08:37:41;7.93;;;2.30;;
38111;SDS011;64011;56.312;44.048;2022-12-11T08:39:42;9.05;;;2.78;;
38111;SDS011;64011;56.312;44.048;2022-12-11T08:41:44;10.20;;;2.67;;
38111;SDS011;64011;56.312;44.048;2022-12-11T08:43:45;9.07;;;2.42;;
38111;SDS011;64011;56.312;44.048;2022-12-11T08:45:46;11.52;;;3.30;;
38111;SDS011;64011;56.312;44.048;2022-12-11T08:47:47;11.00;;;3.30;;
38111;SDS011;64011;56.312;44.048;2022-12-11T08:49:47;8.07;;;2.70;;
38111;SDS011;64011;56.312;44.048;2022-12-11T08:51:48;14.70;;;3.72;;
38111;SDS011;64011;56.312;44.048;2022-12-11T08:53:49;10.52;;;3.45;;
38111;SDS011;64011;56.312;44.048;2022-12-11T08:55:50;11.10;;;3.03;;
38111;SDS011;64011;56.312;44.048;2022-12-11T08:57:52;12.35;;;3.53;;
38111;SDS011;64011;56.312;44.048;2022-12-11T08:59:52;14.02;;;4.07;;
38111;SDS011;64011;56.312;44.048;2022-12-11T09:01:53;18.88;;;6.35;;
38111;SDS011;64011;56.312;44.048;2022-12-11T09:03:54;22.55;;;8.65;;
38111;SDS011;64011;56.312;44.048;2022-12-11T09:05:56;13.23;;;4.00;;
38111;SDS011;64011;56.312;44.048;2022-12-11T09:07:57;15.75;;;5.32;;
38111;SDS011;64011;56.312;44.048;2022-12-11T09:09:57;14.93;;;5.13;;
38111;SDS011;64011;56.312;44.048;2022-12-11T09:11:58;13.00;;;3.70;;
38111;SDS011;64011;56.312;44.048;2022-12-11T09:14:00;12.15;;;3.85;;
38111;SDS011;64011;56.312;44.048;2022-12-11T09:16:02;10.73;;;3.17;;
38111;SDS011;64011;56.312;44.048;2022-12-11T09:18:03;11.18;;;3.58;;
38111;SDS011;64011;56.312;44.048;2022-12-11T09:20:04;11.15;;;4.00;;
38111;SDS011;64011;56.312;44.048;2022-12-11T09:22:06;12.50;;;3.70;;
38111;SDS011;64011;56.312;44.048;2022-12-11T09:24:07;10.48;;;3.22;;
38111;SDS011;64011;56.312;44.048;2022-12-11T09:26:09;8.75;;;2.70;;
38111;SDS011;64011;56.312;44.048;2022-12-11T09:28:10;10.07;;;3.00;;
38111;SDS011;64011;56.312;44.048;2022-12-11T09:30:13;8.27;;;3.20;;
38111;SDS011;64011;56.312;44.048;2022-12-11T09:32:14;12.38;;;3.58;;
38111;SDS011;64011;56.312;44.048;2022-12-11T09:34:14;13.23;;;3.90;;
38111;SDS011;64011;56.312;44.048;2022-12-11T09:36:15;10.68;;;3.28;;
38111;SDS011;64011;56.312;44.048;2022-12-11T09:38:16;12.13;;;3.58;;
38111;SDS011;64011;56.312;44.048;2022-12-11T09:40:16;18.17;;;5.57;;
38111;SDS011;64011;56.312;44.048;2022-12-11T09:42:18;12.15;;;4.00;;
38111;SDS011;64011;56.312;44.048;2022-12-11T09:44:37;9.90;;;2.80;;
38111;SDS011;64011;56.312;44.048;2022-12-11T09:46:42;14.55;;;4.57;;
38111;SDS011;64011;56.312;44.048;2022-12-11T09:48:43;11.07;;;3.50;;
38111;SDS011;64011;56.312;44.048;2022-12-11T09:50:46;14.25;;;3.80;;
38111;SDS011;64011;56.312;44.048;2022-12-11T09:52:52;13.02;;;4.25;;
38111;SDS011;64011;56.312;44.048;2022-12-11T09:54:58;10.38;;;3.28;;
38111;SDS011;64011;56.312;44.048;2022-12-11T09:57:02;10.70;;;3.42;;
38111;SDS011;64011;56.312;44.048;2022-12-11T09:59:12;9.25;;;2.50;;
38111;SDS011;64011;56.312;44.048;2022-12-11T10:01:20;11.88;;;3.53;;
38111;SDS011;64011;56.312;44.048;2022-12-11T10:03:30;7.22;;;2.80;;
38111;SDS011;64011;56.312;44.048;2022-12-11T10:05:41;11.35;;;3.03;;
38111;SDS011;64011;56.312;44.048;2022-12-11T10:07:47;10.82;;;3.72;;
38111;SDS011;64011;56.312;44.048;2022-12-11T10:09:53;10.05;;;3.33;;
38111;SDS011;64011;56.312;44.048;2022-12-11T10:11:57;3.95;;;1.55;;
38111;SDS011;64011;56.312;44.048;2022-12-11T10:14:05;9.02;;;2.83;;
38111;SDS011;64011;56.312;44.048;2022-12-11T10:16:14;9.67;;;3.00;;
38111;SDS011;64011;56.312;44.048;2022-12-11T10:18:19;7.80;;;2.67;;
38111;SDS011;64011;56.312;44.048;2022-12-11T10:20:25;11.10;;;3.53;;
38111;SDS011;64011;56.312;44.048;2022-12-11T10:22:29;9.55;;;3.33;;
38111;SDS011;64011;56.312;44.048;2022-12-11T10:24:32;11.73;;;3.55;;
38111;SDS011;64011;56.312;44.048;2022-12-11T10:26:35;9.77;;;2.88;;
38111;SDS011;64011;56.312;44.048;2022-12-11T10:28:38;11.13;;;3.83;;
38111;SDS011;64011;56.312;44.048;2022-12-11T10:30:40;12.05;;;3.85;;
38111;SDS011;64011;56.312;44.048;2022-12-11T10:32:46;10.60;;;2.67;;
38111;SDS011;64011;56.312;44.048;2022-12-11T10:34:51;12.40;;;4.03;;
38111;SDS011;64011;56.312;44.048;2022-12-11T10:36:57;11.38;;;3.08;;
38111;SDS011;64011;56.312;44.048;2022-12-11T10:38:58;13.05;;;3.65;;
38111;SDS011;64011;56.312;44.048;2022-12-11T10:41:00;15.63;;;4.90;;
38111;SDS011;64011;56.312;44.048;2022-12-11T10:43:02;10.73;;;3.80;;
38111;SDS011;64011;56.312;44.048;2022-12-11T10:45:03;13.23;;;4.50;;
38111;SDS011;64011;56.312;44.048;2022-12-11T10:47:08;12.68;;;4.35;;
38111;SDS011;64011;56.312;44.048;2022-12-11T10:49:19;9.15;;;2.92;;
38111;SDS011;64011;56.312;44.048;2022-12-11T10:51:22;13.63;;;3.97;;
38111;SDS011;64011;56.312;44.048;2022-12-11T10:53:26;13.75;;;3.92;;
38111;SDS011;64011;56.312;44.048;2022-12-11T10:55:28;11.70;;;3.38;;
38111;SDS011;64011;56.312;44.048;2022-12-11T10:57:32;11.43;;;3.80;;
38111;SDS011;64011;56.312;44.048;2022-12-11T10:59:35;11.30;;;3.10;;
38111;SDS011;64011;56.312;44.048;2022-12-11T11:01:37;16.08;;;3.92;;
38111;SDS011;64011;56.312;44.048;2022-12-11T11:03:41;10.20;;;3.47;;
38111;SDS011;64011;56.312;44.048;2022-12-11T11:06:00;12.07;;;3.83;;
38111;SDS011;64011;56.312;44.048;2022-12-11T11:08:12;8.13;;;2.50;;
38111;SDS011;64011;56.312;44.048;2022-12-11T11:10:16;13.35;;;4.10;;
38111;SDS011;64011;56.312;44.048;2022-12-11T11:12:18;15.40;;;4.45;;
38111;SDS011;64011;56.312;44.048;2022-12-11T11:14:21;17.17;;;6.28;;
38111;SDS011;64011;56.312;44.048;2022-12-11T11:16:22;9.98;;;3.72;;
38111;SDS011;64011;56.312;44.048;2022-12-11T11:18:23;13.48;;;4.35;;
38111;SDS011;64011;56.312;44.048;2022-12-11T11:20:25;16.50;;;4.95;;
38111;SDS011;64011;56.312;44.048;2022-12-11T11:22:27;13.75;;;5.18;;
38111;SDS011;64011;56.312;44.048;2022-12-11T11:24:29;14.88;;;4.70;;
38111;SDS011;64011;56.312;44.048;2022-12-11T11:26:35;14.30;;;4.60;;
38111;SDS011;64011;56.312;44.048;2022-12-11T11:28:36;15.07;;;4.97;;
38111;SDS011;64011;56.312;44.048;2022-12-11T11:30:39;13.40;;;5.40;;
38111;SDS011;64011;56.312;44.048;2022-12-11T11:32:40;14.18;;;4.00;;
38111;SDS011;64011;56.312;44.048;2022-12-11T11:34:41;14.10;;;4.72;;
38111;SDS011;64011;56.312;44.048;2022-12-11T11:36:41;13.27;;;3.83;;
38111;SDS011;64011;56.312;44.048;2022-12-11T11:38:43;12.52;;;4.07;;
38111;SDS011;64011;56.312;44.048;2022-12-11T11:40:47;14.77;;;4.80;;
38111;SDS011;64011;56.312;44.048;2022-12-11T11:43:06;15.05;;;4.63;;
38111;SDS011;64011;56.312;44.048;2022-12-11T11:45:15;16.17;;;5.30;;
38111;SDS011;64011;56.312;44.048;2022-12-11T11:47:18;15.65;;;5.10;;
38111;SDS011;64011;56.312;44.048;2022-12-11T11:49:21;15.07;;;5.22;;
38111;SDS011;64011;56.312;44.048;2022-12-11T11:51:26;15.10;;;4.53;;
38111;SDS011;64011;56.312;44.048;2022-12-11T11:53:29;15.80;;;5.88;;
38111;SDS011;64011;56.312;44.048;2022-12-11T11:55:35;15.65;;;5.25;;
38111;SDS011;64011;56.312;44.048;2022-12-11T11:57:40;16.67;;;5.97;;
38111;SDS011;64011;56.312;44.048;2022-12-11T11:59:45;17.27;;;5.80;;
38111;SDS011;64011;56.312;44.048;2022-12-11T12:01:48;17.00;;;5.50;;
38111;SDS011;64011;56.312;44.048;2022-12-11T12:03:50;18.75;;;5.40;;